Etusivu
METAR-TAF:

METAR-TAF

Lentoasemat :

Masvingo, Zimbabwe

Leveyspiiri: 20-04S, Pituuspiiri: 030-52E, korkeus merenpinnasta: 1094 m

Tämänhetkinen sää

Tämä raportti tehtiin 6 tuntia ja 6 minuuttia sitten, kello 06.00 UTC
Tuuli 1 kn idästä/koillisesta
Lämpötila 11°C
Kosteus 47%
Ilmanpaine 1024 hPa
Näkyvyys 10 km tai enemmän
ei pilviä alle 1500 m:ssä eikä cumulonimbus-pilviä

METAR: FVMV 130600Z 06001KT CAVOK 11/00 Q1024 NOSIG

Aika: 14:06 (12:06 UTC)


TAF: puuttuu

Säähavainnot ja -ennusteet yli 4000 lentoasemalta (METAR- ja TAF-raportit).

Käytössä olevat sääasemat on merkitty karttaan keltaisilla ja punaisilla pisteillä.

Aseta hiiri pisteen päälle nähdäksesi sääaseman nimen.

Klikkaa sitten nähdäksesi säähavainnot ja -ennusteet.

Kartan vaihtaminen: klikkaa mustalla rastilla varustettuja vihreitä pisteitä, niin voit zoomata sisään; viivalla varustettua vihreää pistettä, niin voit zoomata ulos tai vihreitä nuolia, niin pääset viereisille kartoille.


METAR-TAF: